Time;durP1;ratioP1;P1;durP2;ratioP2;P2;SDS_P1;SDS_P2;PMS_P1;PMS_P2;Temp;Humidity;BMP_temperature;BMP_pressure;BME280_temperature;BME280_humidity;BME280_pressure;Samples;Min_cycle;Max_cycle;Signal;HPM_P1;HPM_P2
2023/02/06 00:02:12;;;;;;;;;;;5.60;99.90;;;;;;5010708;28;20023;-74
2023/02/06 00:04:37;;;;;;;;;;;5.60;99.90;;;;;;5008923;28;19917;-74
2023/02/06 00:07:03;;;;;;;;;;;5.70;99.90;;;;;;5018711;28;19917;-77
2023/02/06 00:09:28;;;;;;;;;;;5.70;99.90;;;;;;5021501;28;19915;-77
2023/02/06 00:11:53;;;;;;;;;;;5.70;99.90;;;;;;5019839;28;20011;-76
2023/02/06 00:14:19;;;;;;;;;;;5.70;99.90;;;;;;5015561;28;19988;-76
2023/02/06 00:16:45;;;;;;;;;;;5.80;99.90;;;;;;5001641;28;19940;-77
2023/02/06 00:19:10;;;;;;;;;;;5.80;99.90;;;;;;5014148;28;19976;-73
2023/02/06 00:21:35;;;;;;;;;;;5.90;99.90;;;;;;5015359;28;20382;-74
2023/02/06 00:24:01;;;;;;;;;;;5.90;99.90;;;;;;5024897;28;19909;-77
2023/02/06 00:26:27;;;;;;;;;;;6.00;99.90;;;;;;5022388;28;19913;-74
2023/02/06 00:28:53;;;;;;;;;;;6.00;99.90;;;;;;5022628;28;19909;-73
2023/02/06 00:31:19;;;;;;;;;;;6.00;99.90;;;;;;5024932;28;20430;-75
2023/02/06 00:33:44;;;;;;;;;;;6.00;99.90;;;;;;5005186;28;19913;-75
2023/02/06 00:36:10;;;;;;;;;;;6.00;99.90;;;;;;5005339;28;19944;-75
2023/02/06 00:38:36;;;;;;;;;;;6.00;99.90;;;;;;5012870;28;19949;-75
2023/02/06 00:41:01;;;;;;;;;;;6.00;99.90;;;;;;5021433;28;19916;-73
2023/02/06 00:43:27;;;;;;;;;;;6.00;99.90;;;;;;5013126;28;20285;-74
2023/02/06 00:45:56;;;;;;;;;;;6.00;99.90;;;;;;5013722;28;19925;-73
2023/02/06 00:48:22;;;;;;;;;;;6.00;99.90;;;;;;5010317;28;19937;-74
2023/02/06 00:50:48;;;;;;;;;;;6.00;99.90;;;;;;5010111;28;19937;-74
2023/02/06 00:53:14;;;;;;;;;;;5.90;99.90;;;;;;5020495;28;19917;-74
2023/02/06 00:55:39;;;;;;;;;;;5.90;99.90;;;;;;5011180;28;19914;-73
2023/02/06 00:58:05;;;;;;;;;;;5.90;99.90;;;;;;5017545;28;20363;-75
2023/02/06 01:00:30;;;;;;;;;;;5.90;99.90;;;;;;5009863;28;19927;-74
2023/02/06 01:02:56;;;;;;;;;;;5.90;99.90;;;;;;5013041;28;20318;-75
2023/02/06 01:05:21;;;;;;;;;;;5.90;99.90;;;;;;5011404;28;20361;-77
2023/02/06 01:07:47;;;;;;;;;;;5.90;99.90;;;;;;5004739;28;20009;-74
2023/02/06 01:10:13;;;;;;;;;;;5.90;99.90;;;;;;5013942;28;20657;-73
2023/02/06 01:12:39;;;;;;;;;;;5.90;99.90;;;;;;5025294;28;19924;-74
2023/02/06 01:15:05;;;;;;;;;;;6.00;99.90;;;;;;5018869;28;19913;-76
2023/02/06 01:17:32;;;;;;;;;;;5.90;99.90;;;;;;5035891;28;19906;-76
2023/02/06 01:19:57;;;;;;;;;;;5.90;99.90;;;;;;5040134;28;19910;-73
2023/02/06 01:22:23;;;;;;;;;;;6.00;99.90;;;;;;5026688;28;20339;-74
2023/02/06 01:24:48;;;;;;;;;;;6.00;99.90;;;;;;5023832;28;19972;-74
2023/02/06 01:27:14;;;;;;;;;;;6.10;99.90;;;;;;5026168;28;19910;-75
2023/02/06 01:29:39;;;;;;;;;;;6.10;99.90;;;;;;5016549;28;19996;-75
2023/02/06 01:32:05;;;;;;;;;;;6.10;99.90;;;;;;5013384;28;19955;-73
2023/02/06 01:34:30;;;;;;;;;;;6.10;99.90;;;;;;5015055;28;20011;-73
2023/02/06 01:36:56;;;;;;;;;;;6.20;99.90;;;;;;5008413;28;19971;-74
2023/02/06 01:39:21;;;;;;;;;;;6.20;99.90;;;;;;5013129;28;19955;-75
2023/02/06 01:41:47;;;;;;;;;;;6.20;99.90;;;;;;5005791;28;20467;-72
2023/02/06 01:44:14;;;;;;;;;;;6.10;99.90;;;;;;5008355;28;19920;-75
2023/02/06 01:46:40;;;;;;;;;;;6.10;99.90;;;;;;5006553;28;19920;-73
2023/02/06 01:49:08;;;;;;;;;;;6.10;99.90;;;;;;5007330;28;19913;-73
2023/02/06 01:51:34;;;;;;;;;;;6.00;99.90;;;;;;5014242;28;19996;-77
2023/02/06 01:54:01;;;;;;;;;;;6.00;99.90;;;;;;5022409;28;20010;-74
2023/02/06 01:56:29;;;;;;;;;;;6.00;99.90;;;;;;5014201;28;19913;-77
2023/02/06 01:58:57;;;;;;;;;;;6.00;99.90;;;;;;5014812;28;19964;-72
2023/02/06 02:01:23;;;;;;;;;;;6.00;99.90;;;;;;5013912;28;19913;-77
2023/02/06 02:03:50;;;;;;;;;;;6.00;99.90;;;;;;5005188;28;19951;-74
2023/02/06 02:06:18;;;;;;;;;;;6.00;99.90;;;;;;5016318;28;19977;-75
2023/02/06 02:08:47;;;;;;;;;;;6.00;99.90;;;;;;5011594;28;19918;-75
2023/02/06 02:11:15;;;;;;;;;;;6.00;99.90;;;;;;5016542;28;19924;-75
2023/02/06 02:13:41;;;;;;;;;;;6.10;99.90;;;;;;5015534;28;19970;-76
2023/02/06 02:16:10;;;;;;;;;;;6.10;99.90;;;;;;5011925;28;20571;-74
2023/02/06 02:18:44;;;;;;;;;;;6.00;99.90;;;;;;5013602;28;19960;-75
2023/02/06 02:21:22;;;;;;;;;;;6.00;99.90;;;;;;5019510;28;19921;-74
2023/02/06 02:24:03;;;;;;;;;;;6.00;99.90;;;;;;5014798;28;19963;-74
2023/02/06 02:26:39;;;;;;;;;;;5.90;99.90;;;;;;5013486;28;20597;-74
2023/02/06 02:29:23;;;;;;;;;;;6.00;99.90;;;;;;5020850;28;19914;-73
2023/02/06 02:32:08;;;;;;;;;;;6.10;99.90;;;;;;5011124;28;19917;-75
2023/02/06 02:34:39;;;;;;;;;;;6.20;99.90;;;;;;5008382;28;19917;-75
2023/02/06 02:37:13;;;;;;;;;;;6.10;99.90;;;;;;5012377;28;19910;-75
2023/02/06 02:39:51;;;;;;;;;;;6.10;99.90;;;;;;5010715;28;19909;-74
2023/02/06 02:42:24;;;;;;;;;;;6.00;99.90;;;;;;5012525;28;19909;-77
2023/02/06 02:45:05;;;;;;;;;;;5.90;99.90;;;;;;5011639;28;19953;-76
2023/02/06 02:47:32;;;;;;;;;;;5.80;99.90;;;;;;5011270;28;20417;-73
2023/02/06 02:49:59;;;;;;;;;;;5.70;99.90;;;;;;5008417;28;19963;-74
2023/02/06 02:52:25;;;;;;;;;;;5.80;99.90;;;;;;5014280;28;19921;-74
2023/02/06 02:54:50;;;;;;;;;;;5.80;99.90;;;;;;5018546;28;20356;-75
2023/02/06 02:57:27;;;;;;;;;;;5.70;99.90;;;;;;5020543;28;19909;-73
2023/02/06 02:59:55;;;;;;;;;;;5.60;99.90;;;;;;5014630;28;19921;-76
2023/02/06 03:02:24;;;;;;;;;;;5.70;99.90;;;;;;5007011;28;19920;-75
2023/02/06 03:04:52;;;;;;;;;;;5.70;99.90;;;;;;5020821;28;19925;-74
2023/02/06 03:07:36;;;;;;;;;;;5.60;99.90;;;;;;5025875;28;20389;-72
2023/02/06 03:10:01;;;;;;;;;;;5.40;99.90;;;;;;5004943;28;19925;-75
2023/02/06 03:12:39;;;;;;;;;;;5.60;99.90;;;;;;5015741;28;19913;-76
2023/02/06 03:15:11;;;;;;;;;;;5.70;99.90;;;;;;5011135;28;19921;-72
2023/02/06 03:17:39;;;;;;;;;;;5.60;99.90;;;;;;5017975;28;19922;-74
2023/02/06 03:20:08;;;;;;;;;;;5.40;99.90;;;;;;5013084;28;20279;-74
2023/02/06 03:22:34;;;;;;;;;;;5.30;99.90;;;;;;5011121;28;19910;-74
2023/02/06 03:25:01;;;;;;;;;;;5.20;99.90;;;;;;5007924;28;20008;-74
2023/02/06 03:27:27;;;;;;;;;;;5.30;99.90;;;;;;5011251;28;19909;-74
2023/02/06 03:29:54;;;;;;;;;;;5.40;99.90;;;;;;5013946;28;20291;-72
2023/02/06 03:32:22;;;;;;;;;;;5.40;99.90;;;;;;5016888;28;19921;-76
2023/02/06 03:34:58;;;;;;;;;;;5.50;99.90;;;;;;5007709;28;19957;-72
2023/02/06 03:37:24;;;;;;;;;;;5.40;99.90;;;;;;5009180;28;19913;-74
2023/02/06 03:39:50;;;;;;;;;;;5.40;99.90;;;;;;5010174;28;19916;-73
2023/02/06 03:42:16;;;;;;;;;;;5.20;99.90;;;;;;5011686;28;19910;-74
2023/02/06 03:44:48;;;;;;;;;;;5.10;99.90;;;;;;5012257;28;19945;-74
2023/02/06 03:47:14;;;;;;;;;;;5.20;99.90;;;;;;5011228;28;19925;-73
2023/02/06 03:49:41;;;;;;;;;;;5.30;99.90;;;;;;5011774;28;19910;-72
2023/02/06 03:52:12;;;;;;;;;;;5.30;99.90;;;;;;5010863;28;19916;-74
2023/02/06 03:54:41;;;;;;;;;;;5.10;99.90;;;;;;5009388;28;19937;-75
2023/02/06 03:57:09;;;;;;;;;;;5.00;99.90;;;;;;5009277;28;20590;-73
2023/02/06 03:59:34;;;;;;;;;;;4.70;99.90;;;;;;5009671;28;19913;-73
2023/02/06 04:02:01;;;;;;;;;;;4.60;99.90;;;;;;5012043;28;19944;-73
2023/02/06 04:04:28;;;;;;;;;;;4.70;99.90;;;;;;5012612;28;19945;-73
2023/02/06 04:06:55;;;;;;;;;;;4.70;99.90;;;;;;5012427;28;19927;-75
2023/02/06 04:09:21;;;;;;;;;;;4.90;99.90;;;;;;5040394;28;19904;-77
2023/02/06 04:11:46;;;;;;;;;;;5.10;99.90;;;;;;5027893;28;19909;-76
2023/02/06 04:14:12;;;;;;;;;;;5.10;99.90;;;;;;5027665;28;20004;-73
2023/02/06 04:16:37;;;;;;;;;;;5.00;99.90;;;;;;5015012;28;19971;-73
2023/02/06 04:19:03;;;;;;;;;;;5.10;99.90;;;;;;5015137;28;19913;-76
2023/02/06 04:21:28;;;;;;;;;;;5.20;99.90;;;;;;5006613;28;20478;-74
2023/02/06 04:23:54;;;;;;;;;;;5.10;99.90;;;;;;5022127;28;19946;-74
2023/02/06 04:26:19;;;;;;;;;;;5.10;99.90;;;;;;5013437;28;19957;-75
2023/02/06 04:28:45;;;;;;;;;;;5.20;99.90;;;;;;5015732;28;19914;-73
2023/02/06 04:31:10;;;;;;;;;;;5.10;99.90;;;;;;5021331;28;19909;-73
2023/02/06 04:33:36;;;;;;;;;;;5.00;99.90;;;;;;5012900;28;19948;-76
2023/02/06 04:36:01;;;;;;;;;;;5.10;99.90;;;;;;5018120;28;19917;-76
2023/02/06 04:38:27;;;;;;;;;;;5.20;99.90;;;;;;5022173;28;20370;-78
2023/02/06 04:40:52;;;;;;;;;;;5.30;99.90;;;;;;5024834;28;19974;-80
2023/02/06 04:43:18;;;;;;;;;;;5.20;99.90;;;;;;5035878;28;20030;-74
2023/02/06 04:45:45;;;;;;;;;;;5.10;99.90;;;;;;5016954;28;19925;-74
2023/02/06 04:48:10;;;;;;;;;;;5.00;99.90;;;;;;5007337;28;20049;-78
2023/02/06 04:50:36;;;;;;;;;;;5.00;99.90;;;;;;5012493;28;20706;-77
2023/02/06 04:53:01;;;;;;;;;;;4.90;99.90;;;;;;5006922;28;19963;-76
2023/02/06 04:55:27;;;;;;;;;;;4.80;99.90;;;;;;5003456;28;19917;-78
2023/02/06 04:57:53;;;;;;;;;;;5.00;99.90;;;;;;5016491;28;19921;-76
2023/02/06 05:00:18;;;;;;;;;;;5.00;99.90;;;;;;5016395;28;19949;-76
2023/02/06 05:02:44;;;;;;;;;;;4.90;99.90;;;;;;5015243;28;19914;-75
2023/02/06 05:05:09;;;;;;;;;;;4.80;99.90;;;;;;5024304;28;19916;-73
2023/02/06 05:07:35;;;;;;;;;;;4.70;99.90;;;;;;5023092;28;19925;-72
2023/02/06 05:10:01;;;;;;;;;;;4.80;99.90;;;;;;5027020;28;19949;-75
2023/02/06 05:12:27;;;;;;;;;;;4.70;99.90;;;;;;5007415;28;19921;-74
2023/02/06 05:14:53;;;;;;;;;;;4.90;99.90;;;;;;5009335;28;20665;-75
2023/02/06 05:17:19;;;;;;;;;;;4.90;99.90;;;;;;5005475;28;20427;-76
2023/02/06 05:19:44;;;;;;;;;;;5.00;99.90;;;;;;5014241;28;19914;-79
2023/02/06 05:22:10;;;;;;;;;;;5.20;99.90;;;;;;5007075;28;19964;-73
2023/02/06 05:24:35;;;;;;;;;;;5.20;99.90;;;;;;5010959;28;19913;-78
2023/02/06 05:27:01;;;;;;;;;;;5.40;99.90;;;;;;5009041;28;19913;-79
2023/02/06 05:29:26;;;;;;;;;;;5.40;99.90;;;;;;5007123;28;20013;-74
2023/02/06 05:31:52;;;;;;;;;;;5.40;99.90;;;;;;5004144;28;19921;-77
2023/02/06 05:34:17;;;;;;;;;;;5.40;99.90;;;;;;5008897;28;19972;-78
2023/02/06 05:36:43;;;;;;;;;;;5.50;99.90;;;;;;5013374;28;20249;-76
2023/02/06 05:39:08;;;;;;;;;;;5.40;99.90;;;;;;5014571;28;19917;-74
2023/02/06 05:41:34;;;;;;;;;;;5.40;99.90;;;;;;5008639;28;19914;-75
2023/02/06 05:43:59;;;;;;;;;;;5.30;99.90;;;;;;5011004;28;20331;-73
2023/02/06 05:46:25;;;;;;;;;;;5.10;99.90;;;;;;5007281;28;19919;-77
2023/02/06 05:48:51;;;;;;;;;;;5.00;99.90;;;;;;5004664;28;19943;-76
2023/02/06 05:51:16;;;;;;;;;;;5.00;99.90;;;;;;5003780;28;19936;-79
2023/02/06 05:53:42;;;;;;;;;;;4.90;99.90;;;;;;5005843;28;19918;-72
2023/02/06 05:56:07;;;;;;;;;;;5.00;99.90;;;;;;5005767;28;20461;-73
2023/02/06 05:58:33;;;;;;;;;;;5.00;99.90;;;;;;5009893;28;20586;-76
2023/02/06 06:00:58;;;;;;;;;;;5.00;99.90;;;;;;4998256;28;20326;-73
2023/02/06 06:03:24;;;;;;;;;;;5.00;99.90;;;;;;5004148;28;19913;-76
2023/02/06 06:05:49;;;;;;;;;;;5.20;99.90;;;;;;5009793;28;20458;-74
2023/02/06 06:08:15;;;;;;;;;;;5.30;99.90;;;;;;5005960;28;19993;-77
2023/02/06 06:10:41;;;;;;;;;;;5.30;99.90;;;;;;5025268;28;19924;-76
2023/02/06 06:13:07;;;;;;;;;;;5.30;99.90;;;;;;5032352;28;19902;-76
2023/02/06 06:15:32;;;;;;;;;;;5.20;99.90;;;;;;5026526;28;19985;-71
2023/02/06 06:17:58;;;;;;;;;;;5.20;99.90;;;;;;5029400;28;19921;-72
2023/02/06 06:20:23;;;;;;;;;;;5.20;99.90;;;;;;5028658;28;19948;-69
2023/02/06 06:22:49;;;;;;;;;;;5.20;99.90;;;;;;5019643;28;19941;-70
2023/02/06 06:25:14;;;;;;;;;;;5.30;99.90;;;;;;5005935;28;19914;-72
2023/02/06 06:27:40;;;;;;;;;;;5.30;99.90;;;;;;5010071;28;19984;-70
2023/02/06 06:30:06;;;;;;;;;;;5.40;99.90;;;;;;5005320;28;19925;-72
2023/02/06 06:32:31;;;;;;;;;;;5.50;99.90;;;;;;5011566;28;19924;-70
2023/02/06 06:34:57;;;;;;;;;;;5.40;99.90;;;;;;5011334;28;19913;-72
2023/02/06 06:37:22;;;;;;;;;;;5.40;99.90;;;;;;5017992;28;19918;-71
2023/02/06 06:39:48;;;;;;;;;;;5.60;99.90;;;;;;5016937;28;20007;-70
2023/02/06 06:42:13;;;;;;;;;;;5.60;99.90;;;;;;5009297;28;20016;-70
2023/02/06 06:44:39;;;;;;;;;;;5.80;99.90;;;;;;5004085;28;19914;-70
2023/02/06 06:47:04;;;;;;;;;;;5.90;99.90;;;;;;5003429;28;19975;-72
2023/02/06 06:49:30;;;;;;;;;;;5.70;99.90;;;;;;4998275;28;19921;-70
2023/02/06 06:51:55;;;;;;;;;;;5.80;99.90;;;;;;5007064;28;19925;-70
2023/02/06 06:54:21;;;;;;;;;;;5.60;99.90;;;;;;5009520;28;19916;-70
2023/02/06 06:56:47;;;;;;;;;;;5.60;99.90;;;;;;5000441;28;19918;-72
2023/02/06 06:59:12;;;;;;;;;;;5.40;99.90;;;;;;4993635;28;19920;-78
2023/02/06 07:01:38;;;;;;;;;;;5.50;99.90;;;;;;5003999;28;19916;-78
2023/02/06 07:04:03;;;;;;;;;;;5.50;99.90;;;;;;5013869;28;19956;-76
2023/02/06 07:06:29;;;;;;;;;;;5.50;99.90;;;;;;5004932;28;19909;-75
2023/02/06 07:08:54;;;;;;;;;;;5.50;99.90;;;;;;5004465;28;19956;-74
2023/02/06 07:11:20;;;;;;;;;;;5.70;99.90;;;;;;5006874;28;20289;-75
2023/02/06 07:13:45;;;;;;;;;;;5.80;99.90;;;;;;4995196;28;19996;-74
2023/02/06 07:16:11;;;;;;;;;;;5.80;99.90;;;;;;5011554;28;20410;-73
2023/02/06 07:18:41;;;;;;;;;;;6.00;99.90;;;;;;5008433;28;19920;-73
2023/02/06 07:21:07;;;;;;;;;;;5.90;99.90;;;;;;4999455;28;19914;-75
2023/02/06 07:23:34;;;;;;;;;;;5.90;99.90;;;;;;4993731;28;19940;-77
2023/02/06 07:26:01;;;;;;;;;;;5.80;99.90;;;;;;4997207;28;19921;-77
2023/02/06 07:28:30;;;;;;;;;;;5.60;99.90;;;;;;5002689;28;19946;-74
2023/02/06 07:31:02;;;;;;;;;;;5.70;99.90;;;;;;4993848;28;20420;-74
2023/02/06 07:33:28;;;;;;;;;;;5.70;99.90;;;;;;4999937;28;19983;-76
2023/02/06 07:35:54;;;;;;;;;;;5.70;99.90;;;;;;4997215;28;20560;-74
2023/02/06 07:38:19;;;;;;;;;;;5.70;99.90;;;;;;4994824;28;19945;-75
2023/02/06 07:40:45;;;;;;;;;;;5.60;99.90;;;;;;5001136;28;20004;-75
2023/02/06 07:43:10;;;;;;;;;;;5.60;99.90;;;;;;4998152;28;19935;-72
2023/02/06 07:45:36;;;;;;;;;;;5.40;99.90;;;;;;4999469;28;19913;-73
2023/02/06 07:48:02;;;;;;;;;;;5.60;99.90;;;;;;4994297;28;19916;-74
2023/02/06 07:50:28;;;;;;;;;;;5.60;99.90;;;;;;5003803;28;21251;-73
2023/02/06 07:52:53;;;;;;;;;;;5.70;99.90;;;;;;5019873;28;19963;-73
2023/02/06 07:55:19;;;;;;;;;;;5.70;99.90;;;;;;5012483;28;19914;-76
2023/02/06 07:57:44;;;;;;;;;;;5.70;99.90;;;;;;5010210;28;19921;-72
2023/02/06 08:00:10;;;;;;;;;;;5.70;99.90;;;;;;5001932;28;19956;-75
2023/02/06 08:02:35;;;;;;;;;;;5.50;99.90;;;;;;4999484;28;19914;-74
2023/02/06 08:05:01;;;;;;;;;;;5.40;99.90;;;;;;5005180;28;19913;-73
2023/02/06 08:07:26;;;;;;;;;;;5.30;99.90;;;;;;5001391;28;20383;-76
2023/02/06 08:09:52;;;;;;;;;;;5.20;99.90;;;;;;5003705;28;19921;-74
2023/02/06 08:12:17;;;;;;;;;;;5.30;99.90;;;;;;5002699;28;19913;-74
2023/02/06 08:14:44;;;;;;;;;;;5.50;99.90;;;;;;5008610;28;19996;-73
2023/02/06 08:17:11;;;;;;;;;;;5.60;99.90;;;;;;5006066;28;19925;-73
2023/02/06 08:19:37;;;;;;;;;;;5.90;99.90;;;;;;5002218;28;19921;-77
2023/02/06 08:22:02;;;;;;;;;;;5.90;99.90;;;;;;5011194;28;20306;-75
2023/02/06 08:24:28;;;;;;;;;;;6.10;99.90;;;;;;5004928;28;20371;-74
2023/02/06 08:26:53;;;;;;;;;;;6.20;99.90;;;;;;5004073;28;19917;-74
2023/02/06 08:29:19;;;;;;;;;;;6.10;99.90;;;;;;4999836;28;19914;-73
2023/02/06 08:31:44;;;;;;;;;;;6.00;99.90;;;;;;5012642;28;19909;-74
2023/02/06 08:34:11;;;;;;;;;;;6.10;99.90;;;;;;5003775;28;19913;-74
2023/02/06 08:36:37;;;;;;;;;;;6.10;99.90;;;;;;5008685;28;20387;-74
2023/02/06 08:39:03;;;;;;;;;;;6.10;99.90;;;;;;5014638;28;19909;-74
2023/02/06 08:41:29;;;;;;;;;;;6.10;99.90;;;;;;5022190;28;20016;-74
2023/02/06 08:43:57;;;;;;;;;;;6.10;99.90;;;;;;5010493;28;19928;-73
2023/02/06 08:46:23;;;;;;;;;;;6.30;99.90;;;;;;5012900;28;19909;-81
2023/02/06 08:48:53;;;;;;;;;;;6.30;99.90;;;;;;5000721;28;19979;-70
2023/02/06 08:51:21;;;;;;;;;;;6.10;99.90;;;;;;5007477;28;20378;-71
2023/02/06 08:53:46;;;;;;;;;;;6.20;99.90;;;;;;5005980;28;19980;-69
2023/02/06 08:56:12;;;;;;;;;;;6.20;99.90;;;;;;5020674;28;19928;-70
2023/02/06 08:58:37;;;;;;;;;;;6.30;99.90;;;;;;5020387;28;20023;-70
2023/02/06 09:01:12;;;;;;;;;;;6.40;99.90;;;;;;5005508;28;19967;-70
2023/02/06 09:03:38;;;;;;;;;;;6.70;99.90;;;;;;5006393;28;19913;-70
2023/02/06 09:06:03;;;;;;;;;;;7.00;99.90;;;;;;5012239;28;19920;-70
2023/02/06 09:08:29;;;;;;;;;;;7.10;99.90;;;;;;5020522;28;19925;-69
2023/02/06 09:10:56;;;;;;;;;;;7.20;99.90;;;;;;5023901;28;19924;-70
2023/02/06 09:13:21;;;;;;;;;;;7.20;99.90;;;;;;5004454;28;19949;-71
2023/02/06 09:15:50;;;;;;;;;;;7.30;99.90;;;;;;4998888;28;19913;-73
2023/02/06 09:18:16;;;;;;;;;;;7.20;99.90;;;;;;5014902;28;19913;-75
2023/02/06 09:20:41;;;;;;;;;;;6.90;99.90;;;;;;5002499;28;20382;-73
2023/02/06 09:23:07;;;;;;;;;;;6.80;99.90;;;;;;5005318;28;19960;-75
2023/02/06 09:25:32;;;;;;;;;;;7.00;99.90;;;;;;5013541;28;20090;-75
2023/02/06 09:27:58;;;;;;;;;;;7.20;99.90;;;;;;5007891;28;19910;-70
2023/02/06 09:30:23;;;;;;;;;;;7.30;99.90;;;;;;5006926;28;20333;-73
2023/02/06 09:32:49;;;;;;;;;;;7.50;99.90;;;;;;5008995;28;19910;-77
2023/02/06 09:35:14;;;;;;;;;;;7.40;99.90;;;;;;5010162;28;19917;-73
2023/02/06 09:37:40;;;;;;;;;;;7.20;99.90;;;;;;5008143;28;19913;-73
2023/02/06 09:40:05;;;;;;;;;;;7.00;99.90;;;;;;5014994;28;19976;-77
2023/02/06 09:42:36;;;;;;;;;;;6.90;99.90;;;;;;5013871;28;19910;-72
2023/02/06 09:45:04;;;;;;;;;;;6.90;99.90;;;;;;5013137;28;19916;-72
2023/02/06 09:47:31;;;;;;;;;;;7.10;99.90;;;;;;5003525;28;19940;-71
2023/02/06 09:49:58;;;;;;;;;;;7.20;99.90;;;;;;5016630;28;20012;-73
2023/02/06 09:52:27;;;;;;;;;;;7.20;99.90;;;;;;4999203;28;20268;-77
2023/02/06 09:54:52;;;;;;;;;;;7.40;99.90;;;;;;5014914;28;20278;-75
2023/02/06 09:57:18;;;;;;;;;;;7.40;99.90;;;;;;5003365;28;19910;-73
2023/02/06 09:59:46;;;;;;;;;;;7.20;99.90;;;;;;5010790;28;20323;-75
2023/02/06 10:02:14;;;;;;;;;;;7.10;99.90;;;;;;5012279;28;19916;-73
2023/02/06 10:04:54;;;;;;;;;;;7.20;99.90;;;;;;5014030;28;19920;-74
2023/02/06 10:07:25;;;;;;;;;;;7.50;99.90;;;;;;5026502;28;19917;-71
2023/02/06 10:09:54;;;;;;;;;;;7.60;99.90;;;;;;5013499;28;19909;-71
2023/02/06 10:12:27;;;;;;;;;;;7.50;99.90;;;;;;5011522;28;20379;-71
2023/02/06 10:15:06;;;;;;;;;;;7.30;99.90;;;;;;5004293;28;19913;-69
2023/02/06 10:17:33;;;;;;;;;;;7.20;99.90;;;;;;5003065;28;19941;-71
2023/02/06 10:20:02;;;;;;;;;;;7.10;99.90;;;;;;5017410;28;19909;-72
2023/02/06 10:22:37;;;;;;;;;;;7.00;99.90;;;;;;5010585;28;20012;-72
2023/02/06 10:25:14;;;;;;;;;;;7.00;99.90;;;;;;5008387;28;19909;-72
2023/02/06 10:27:41;;;;;;;;;;;7.10;99.90;;;;;;5005466;28;19921;-71
2023/02/06 10:30:11;;;;;;;;;;;7.10;99.90;;;;;;5005400;28;19917;-70
2023/02/06 10:32:36;;;;;;;;;;;7.30;99.90;;;;;;5015330;28;19913;-71
2023/02/06 10:35:25;;;;;;;;;;;7.40;99.90;;;;;;5004761;28;19909;-72
2023/02/06 10:38:09;;;;;;;;;;;7.20;99.90;;;;;;4997628;28;20702;-71
2023/02/06 10:40:42;;;;;;;;;;;7.30;99.90;;;;;;4998978;28;19921;-72
2023/02/06 10:43:19;;;;;;;;;;;7.50;99.90;;;;;;4998152;28;19910;-70
2023/02/06 10:45:49;;;;;;;;;;;7.20;99.90;;;;;;5010303;28;19933;-72
2023/02/06 10:48:19;;;;;;;;;;;7.30;99.90;;;;;;5011641;28;19909;-70
2023/02/06 10:50:49;;;;;;;;;;;7.40;99.90;;;;;;5004868;28;19960;-69
2023/02/06 10:53:24;;;;;;;;;;;7.30;99.90;;;;;;5014509;28;20059;-69
2023/02/06 10:55:55;;;;;;;;;;;7.20;99.90;;;;;;5006468;28;20315;-70
2023/02/06 10:58:24;;;;;;;;;;;7.30;99.90;;;;;;5018831;28;19970;-72
2023/02/06 11:00:50;;;;;;;;;;;7.50;99.90;;;;;;5027803;28;19999;-71
2023/02/06 11:03:18;;;;;;;;;;;7.20;99.90;;;;;;5017971;28;19914;-70
2023/02/06 11:05:43;;;;;;;;;;;7.10;99.90;;;;;;5016646;28;20378;-71
2023/02/06 11:08:12;;;;;;;;;;;7.20;99.90;;;;;;5011221;28;19917;-71
2023/02/06 11:10:38;;;;;;;;;;;7.40;99.90;;;;;;5013147;28;19910;-72
2023/02/06 11:13:10;;;;;;;;;;;7.60;99.90;;;;;;5013933;28;20481;-69
2023/02/06 11:15:53;;;;;;;;;;;7.70;99.90;;;;;;5024358;28;19918;-73
2023/02/06 11:18:22;;;;;;;;;;;7.60;99.90;;;;;;5014630;28;19967;-70
2023/02/06 11:20:49;;;;;;;;;;;8.00;99.90;;;;;;5002388;28;20003;-71
2023/02/06 11:23:16;;;;;;;;;;;8.40;99.90;;;;;;5008502;28;20609;-71
2023/02/06 11:25:42;;;;;;;;;;;8.20;99.90;;;;;;5003778;28;19921;-70
2023/02/06 11:28:19;;;;;;;;;;;7.80;99.90;;;;;;5014188;28;19952;-72
2023/02/06 11:31:04;;;;;;;;;;;8.00;99.90;;;;;;4999432;28;19922;-71
2023/02/06 11:33:49;;;;;;;;;;;8.00;99.90;;;;;;4996161;28;19918;-70
2023/02/06 11:36:21;;;;;;;;;;;7.90;99.90;;;;;;5002215;28;19917;-73
2023/02/06 11:38:54;;;;;;;;;;;8.30;99.90;;;;;;5006971;28;19913;-72
2023/02/06 11:41:19;;;;;;;;;;;8.70;99.90;;;;;;5011985;28;19917;-73
2023/02/06 11:43:48;;;;;;;;;;;9.00;99.90;;;;;;4999485;28;19909;-74
2023/02/06 11:46:16;;;;;;;;;;;8.60;99.90;;;;;;5014480;28;19981;-70
2023/02/06 11:48:43;;;;;;;;;;;8.60;99.90;;;;;;5005110;28;20012;-71
2023/02/06 11:51:09;;;;;;;;;;;8.50;99.90;;;;;;5010444;28;19910;-71
2023/02/06 11:53:35;;;;;;;;;;;8.70;99.90;;;;;;5010965;28;19924;-73
2023/02/06 11:56:02;;;;;;;;;;;9.20;99.90;;;;;;5005761;28;20298;-70
2023/02/06 11:58:28;;;;;;;;;;;8.70;99.90;;;;;;5020545;28;19960;-71
2023/02/06 12:00:57;;;;;;;;;;;8.50;99.90;;;;;;5014848;28;19913;-73
2023/02/06 12:03:31;;;;;;;;;;;8.70;99.90;;;;;;5018099;28;20307;-72
2023/02/06 12:06:00;;;;;;;;;;;9.10;99.90;;;;;;5005314;28;20651;-71
2023/02/06 12:08:30;;;;;;;;;;;9.20;99.90;;;;;;5006205;28;19926;-73
2023/02/06 12:10:58;;;;;;;;;;;9.30;99.90;;;;;;5005403;28;19909;-72
2023/02/06 12:13:26;;;;;;;;;;;9.40;99.90;;;;;;5003640;28;19914;-72
2023/02/06 12:15:53;;;;;;;;;;;9.20;99.90;;;;;;5010205;28;19917;-71
2023/02/06 12:18:21;;;;;;;;;;;9.20;99.90;;;;;;5009256;28;19909;-70
2023/02/06 12:20:49;;;;;;;;;;;9.00;99.90;;;;;;5002163;28;19917;-73
2023/02/06 12:23:19;;;;;;;;;;;9.10;99.90;;;;;;5012485;28;19916;-73
2023/02/06 12:25:47;;;;;;;;;;;8.70;99.90;;;;;;5015512;28;19914;-73
2023/02/06 12:28:16;;;;;;;;;;;8.80;99.90;;;;;;5014656;28;19910;-74
2023/02/06 12:30:46;;;;;;;;;;;8.60;99.90;;;;;;5012437;28;19937;-73
2023/02/06 12:33:17;;;;;;;;;;;8.10;99.90;;;;;;5018771;28;19909;-72
2023/02/06 12:35:45;;;;;;;;;;;7.90;99.90;;;;;;5008075;28;19917;-73
2023/02/06 12:38:25;;;;;;;;;;;8.00;99.90;;;;;;5014470;28;20545;-73
2023/02/06 12:41:07;;;;;;;;;;;8.00;99.90;;;;;;4996229;28;19964;-74
2023/02/06 12:43:34;;;;;;;;;;;8.20;99.90;;;;;;5015151;28;20307;-73
2023/02/06 12:46:05;;;;;;;;;;;8.70;99.90;;;;;;5006250;28;20021;-73
2023/02/06 12:48:42;;;;;;;;;;;9.00;99.90;;;;;;5018722;28;19942;-72
2023/02/06 12:51:15;;;;;;;;;;;9.10;99.90;;;;;;5009289;28;20002;-72
2023/02/06 12:53:46;;;;;;;;;;;8.60;99.90;;;;;;5011881;28;19921;-72
2023/02/06 12:56:12;;;;;;;;;;;8.80;99.90;;;;;;5003297;28;19952;-73
2023/02/06 12:58:37;;;;;;;;;;;8.90;99.90;;;;;;5005571;28;19914;-72
2023/02/06 13:01:21;;;;;;;;;;;8.70;99.90;;;;;;5013726;28;19910;-72
2023/02/06 13:03:53;;;;;;;;;;;8.40;99.90;;;;;;5017512;28;19910;-73
2023/02/06 13:06:20;;;;;;;;;;;8.10;99.90;;;;;;5028480;28;19940;-72
2023/02/06 13:08:45;;;;;;;;;;;8.00;99.90;;;;;;5012542;28;20008;-71
2023/02/06 13:11:11;;;;;;;;;;;8.10;99.90;;;;;;5009874;28;20417;-73
2023/02/06 13:13:38;;;;;;;;;;;8.10;99.90;;;;;;5006096;28;20346;-72
2023/02/06 13:16:04;;;;;;;;;;;8.30;99.90;;;;;;5000488;28;19918;-73
2023/02/06 13:18:34;;;;;;;;;;;8.10;99.90;;;;;;5026377;28;19920;-73
2023/02/06 13:21:14;;;;;;;;;;;8.10;99.90;;;;;;5020529;28;20003;-72
2023/02/06 13:23:50;;;;;;;;;;;8.50;99.90;;;;;;5016082;28;19980;-72
2023/02/06 13:26:16;;;;;;;;;;;9.00;99.90;;;;;;5015056;28;19909;-73
2023/02/06 13:28:44;;;;;;;;;;;8.80;99.90;;;;;;5017640;28;19910;-73
2023/02/06 13:31:23;;;;;;;;;;;8.40;99.90;;;;;;5011757;28;20414;-72
2023/02/06 13:33:50;;;;;;;;;;;8.30;99.90;;;;;;5006717;28;19918;-72
2023/02/06 13:36:17;;;;;;;;;;;8.30;99.90;;;;;;5014930;28;20119;-72
2023/02/06 13:38:42;;;;;;;;;;;8.10;99.90;;;;;;5012407;28;20012;-72
2023/02/06 13:41:14;;;;;;;;;;;8.20;99.90;;;;;;5007608;28;20718;-72
2023/02/06 13:43:40;;;;;;;;;;;8.20;99.90;;;;;;5005171;28;19913;-72
2023/02/06 13:46:08;;;;;;;;;;;8.20;99.90;;;;;;5006800;28;20367;-72
2023/02/06 13:48:50;;;;;;;;;;;8.50;99.90;;;;;;5011850;28;19916;-71
2023/02/06 13:51:18;;;;;;;;;;;8.40;99.90;;;;;;5007533;28;19909;-73
2023/02/06 13:53:59;;;;;;;;;;;8.40;99.90;;;;;;5005266;28;19914;-72
2023/02/06 13:56:43;;;;;;;;;;;8.40;99.90;;;;;;5004156;28;19922;-72
2023/02/06 13:59:16;;;;;;;;;;;8.40;99.90;;;;;;5028526;28;19914;-72
2023/02/06 14:01:42;;;;;;;;;;;8.30;99.90;;;;;;5015197;28;19909;-72
2023/02/06 14:04:12;;;;;;;;;;;8.30;99.90;;;;;;5017546;28;20003;-72
2023/02/06 14:06:55;;;;;;;;;;;8.40;99.90;;;;;;5017469;28;19918;-71
2023/02/06 14:12:33;;;;;;;;;;;8.30;99.90;;;;;;5010597;28;19920;-72
2023/02/06 14:15:02;;;;;;;;;;;8.60;99.90;;;;;;5007775;28;19917;-74
2023/02/06 14:17:46;;;;;;;;;;;8.60;99.90;;;;;;5011260;28;19913;-72
2023/02/06 14:20:24;;;;;;;;;;;8.60;99.90;;;;;;5012335;28;19937;-73
2023/02/06 14:23:22;;;;;;;;;;;8.40;99.90;;;;;;5023749;28;20451;-73
2023/02/06 14:25:53;;;;;;;;;;;8.40;99.90;;;;;;4994683;28;19909;-71
2023/02/06 14:28:21;;;;;;;;;;;8.50;99.90;;;;;;5012260;28;19910;-72
2023/02/06 14:30:52;;;;;;;;;;;8.70;99.90;;;;;;5019019;28;20276;-72
2023/02/06 14:33:29;;;;;;;;;;;8.60;99.90;;;;;;5003961;28;19925;-73
2023/02/06 14:36:27;;;;;;;;;;;8.50;99.90;;;;;;5012755;28;19971;-72
2023/02/06 14:38:53;;;;;;;;;;;8.40;99.90;;;;;;4988095;28;19920;-72
2023/02/06 14:41:18;;;;;;;;;;;8.10;99.90;;;;;;5012442;28;19917;-73